aviador You're here:

LDDU Decoded Metar

DUBROVNIK in CROATIA
Report Time2018-06-18 15:00:00
UTC Time2018-06-18 15:29:33
Flight Rules vfr VFR
Wind300° at 12 kt
W.Decomp.*RWY 30: 12.0 kt HW 0.6 kt LCW
W.Rank300° ranks 8
Current wind is above 300° avg. (7.2)
Visibility9999 m
Phenomena:N/A
Clouds:N/A
Expected CloudBase > 5,200 ft AGL from Temp-Dew spread
CeilingNone
Temp27°C (ISA +13)
Dew Point14°C (45% RH)
Heat Index27.1°C
AAT24.0°C
QNH1011 hPa
Density Alt2,329 ft
Elevation541 ft
Report Wrong Elevation
Raw Report
LDDU 181500Z 30012KT CAVOK 27/14 Q1011 NOSIG=

Extra information for LDDU:More info

Metar Taf Metar & Taf Last 4 Metars F.Rules Stats Wind Profile Meteogram Temp Stats Airport Information Weather charts Add Link Nearby VenuesMetar ALERT Operation Metar Decoded Social comments